createdAt,value
2019-04-14T00:02:01.443Z,225.87
2019-04-14T00:06:11.912Z,227.90
2019-04-14T00:10:22.653Z,229.67
2019-04-14T00:14:33.640Z,232.57
2019-04-14T00:18:44.734Z,218.83
2019-04-14T00:22:55.520Z,226.30
2019-04-14T00:27:06.403Z,228.43
2019-04-14T00:31:17.340Z,228.80
2019-04-14T00:35:32.713Z,234.03
2019-04-14T00:39:44.646Z,226.33
2019-04-14T00:43:59.490Z,222.00
2019-04-14T00:48:16.615Z,223.67
2019-04-14T00:52:25.471Z,222.53
2019-04-14T00:56:36.867Z,230.60
2019-04-14T01:00:47.953Z,230.27
2019-04-14T01:05:00.036Z,225.70
2019-04-14T01:09:13.049Z,231.30
2019-04-14T01:13:24.537Z,226.70
2019-04-14T01:17:35.273Z,223.63
2019-04-14T01:21:45.775Z,231.40
2019-04-14T01:25:56.526Z,235.17
2019-04-14T01:30:11.170Z,224.87
2019-04-14T01:34:21.726Z,229.67
2019-04-14T01:38:32.058Z,221.00
2019-04-14T01:42:42.279Z,236.07
2019-04-14T01:46:52.584Z,228.80
2019-04-14T01:51:13.604Z,226.00
2019-04-14T01:55:44.132Z,227.63
2019-04-14T01:59:54.717Z,227.93
2019-04-14T02:04:05.056Z,235.57
2019-04-14T02:08:16.112Z,236.73
2019-04-14T02:12:27.783Z,225.93
2019-04-14T02:16:44.484Z,223.83
2019-04-14T02:20:51.183Z,226.63
2019-04-14T02:25:01.812Z,232.53
2019-04-14T02:29:12.758Z,230.70
2019-04-14T02:34:00.781Z,234.70
2019-04-14T02:38:12.312Z,232.27
2019-04-14T02:42:27.685Z,229.80
2019-04-14T02:46:34.505Z,228.17
2019-04-14T02:50:38.521Z,232.57
2019-04-14T02:59:00.085Z,247.40
2019-04-14T03:03:16.467Z,225.87
2019-04-14T03:11:43.980Z,236.43
2019-04-14T03:15:56.873Z,233.70
2019-04-14T03:24:30.834Z,231.10
2019-04-14T03:28:51.391Z,237.77
2019-04-14T03:37:24.086Z,233.50
2019-04-14T03:45:44.142Z,226.83
2019-04-14T03:53:57.576Z,225.80
2019-04-14T03:57:45.504Z,230.50
2019-04-14T04:01:56.614Z,240.00
2019-04-14T04:06:07.544Z,231.07
2019-04-14T04:10:19.152Z,230.23
2019-04-14T04:14:29.710Z,221.70
2019-04-14T04:18:50.932Z,228.73
2019-04-14T04:23:03.087Z,228.10
2019-04-14T04:27:27.261Z,231.40
2019-04-14T04:31:46.116Z,248.82
2019-04-14T04:36:01.125Z,233.63
2019-04-14T04:40:13.592Z,236.67
2019-04-14T04:44:24.807Z,232.80
2019-04-14T04:48:35.252Z,235.43
2019-04-14T04:52:45.713Z,233.70
2019-04-14T04:56:56.060Z,238.53
2019-04-14T05:01:07.663Z,231.73
2019-04-14T05:05:53.946Z,227.87
2019-04-14T05:10:13.188Z,239.20
2019-04-14T05:14:28.348Z,233.60
2019-04-14T05:18:39.646Z,231.00
2019-04-14T05:22:50.828Z,232.17
2019-04-14T05:27:01.434Z,240.90
2019-04-14T05:31:12.164Z,243.33
2019-04-14T05:35:22.755Z,242.07
2019-04-14T05:39:33.078Z,237.67
2019-04-14T05:43:50.211Z,234.20
2019-04-14T05:47:56.492Z,240.00
2019-04-14T05:52:07.754Z,238.97
2019-04-14T05:56:18.662Z,232.10
2019-04-14T06:00:29.972Z,247.13
2019-04-14T06:04:40.409Z,238.77
2019-04-14T06:08:50.902Z,247.57
2019-04-14T06:13:01.093Z,245.27
2019-04-14T06:17:12.073Z,240.87
2019-04-14T06:21:22.676Z,236.80
2019-04-14T06:25:32.979Z,237.97
2019-04-14T06:29:43.353Z,239.17
2019-04-14T06:33:57.052Z,240.53
2019-04-14T06:38:09.007Z,235.67
2019-04-14T06:42:19.628Z,229.63
2019-04-14T06:46:29.925Z,234.50
2019-04-14T06:50:41.857Z,234.53
2019-04-14T06:54:52.315Z,229.50
2019-04-14T06:59:02.936Z,234.98
2019-04-14T07:03:13.381Z,233.10
2019-04-14T07:07:24.799Z,231.40
2019-04-14T07:11:35.423Z,229.20
2019-04-14T07:15:45.717Z,223.67
2019-04-14T07:20:02.276Z,223.57
2019-04-14T07:24:08.012Z,221.07
2019-04-14T07:28:18.484Z,225.90
2019-04-14T07:32:45.745Z,228.07
2019-04-14T07:36:57.699Z,229.77
2019-04-14T07:41:15.808Z,226.10
2019-04-14T07:45:30.361Z,231.63
2019-04-14T07:49:57.289Z,222.93
2019-04-14T07:54:11.859Z,224.43
2019-04-14T07:58:24.019Z,231.17
2019-04-14T08:02:35.955Z,232.70
2019-04-14T08:06:48.009Z,227.60
2019-04-14T08:10:58.851Z,228.47
2019-04-14T08:15:09.667Z,224.67
2019-04-14T08:19:19.995Z,231.27
2019-04-14T08:23:30.599Z,231.10
2019-04-14T08:27:40.935Z,231.03
2019-04-14T08:31:51.323Z,230.30
2019-04-14T08:36:01.667Z,232.37
2019-04-14T08:40:12.113Z,228.70
2019-04-14T08:44:35.762Z,229.70
2019-04-14T08:48:47.639Z,228.70
2019-04-14T08:53:02.429Z,229.67
2019-04-14T08:57:20.527Z,231.67
2019-04-14T09:01:35.609Z,228.20
2019-04-14T09:05:47.619Z,228.30
2019-04-14T09:10:02.307Z,239.03
2019-04-14T09:14:13.026Z,231.53
2019-04-14T09:18:23.236Z,231.13
2019-04-14T09:22:33.547Z,234.20
2019-04-14T09:26:45.095Z,232.32
2019-04-14T09:30:56.004Z,236.97
2019-04-14T09:35:07.046Z,231.53
2019-04-14T09:39:17.303Z,227.43
2019-04-14T09:43:27.776Z,224.93
2019-04-14T09:47:38.091Z,225.77
2019-04-14T09:51:48.962Z,230.60
2019-04-14T09:55:59.427Z,225.80
2019-04-14T10:00:11.278Z,223.70
2019-04-14T10:04:21.663Z,226.30
2019-04-14T10:08:31.951Z,224.50
2019-04-14T10:12:42.564Z,228.93
2019-04-14T10:16:52.871Z,225.77
2019-04-14T10:21:03.403Z,229.03
2019-04-14T10:25:13.827Z,222.80
2019-04-14T10:29:24.270Z,229.33
2019-04-14T10:33:34.594Z,235.57
2019-04-14T10:37:46.292Z,232.10
2019-04-14T10:41:56.842Z,228.10
2019-04-14T10:46:07.234Z,221.33
2019-04-14T10:50:29.901Z,226.20
2019-04-14T10:54:29.449Z,224.20
2019-04-14T10:58:39.782Z,236.57
2019-04-14T11:02:50.384Z,244.47
2019-04-14T11:07:11.302Z,235.87
2019-04-14T11:11:22.398Z,234.97
2019-04-14T11:15:32.679Z,227.20
2019-04-14T11:19:43.003Z,220.37
2019-04-14T11:23:53.449Z,224.23
2019-04-14T11:28:03.989Z,233.20
2019-04-14T11:32:18.631Z,222.47
2019-04-14T11:36:46.736Z,229.50
2019-04-14T11:41:00.749Z,230.07
2019-04-14T11:45:11.834Z,227.90
2019-04-14T11:49:22.295Z,218.77
2019-04-14T11:53:32.574Z,222.97
2019-04-14T11:57:45.410Z,231.70
2019-04-14T12:01:57.290Z,231.33
2019-04-14T12:06:18.718Z,230.70
2019-04-14T12:10:28.979Z,245.43
2019-04-14T12:14:39.205Z,227.07
2019-04-14T12:18:49.857Z,229.33
2019-04-14T12:23:00.212Z,239.30
2019-04-14T12:27:10.569Z,236.80
2019-04-14T12:31:21.836Z,241.10
2019-04-14T12:35:32.297Z,242.63
2019-04-14T12:39:43.503Z,249.63
2019-04-14T12:43:55.502Z,244.10
2019-04-14T12:48:07.757Z,247.17
2019-04-14T12:52:22.562Z,247.98
2019-04-14T12:56:32.900Z,252.07
2019-04-14T13:00:51.363Z,253.97
2019-04-14T13:05:01.928Z,255.40
2019-04-14T13:09:14.600Z,263.60
2019-04-14T13:13:24.925Z,251.73
2019-04-14T13:17:35.266Z,248.73
2019-04-14T13:21:47.064Z,256.57
2019-04-14T13:25:57.397Z,251.90
2019-04-14T13:30:10.611Z,264.23
2019-04-14T13:34:20.965Z,252.23
2019-04-14T13:38:31.253Z,251.10
2019-04-14T13:42:41.450Z,252.07
2019-04-14T13:46:52.268Z,260.93
2019-04-14T13:51:03.148Z,251.93
2019-04-14T13:55:14.570Z,251.85
2019-04-14T13:59:24.856Z,257.10
2019-04-14T14:03:35.288Z,254.67
2019-04-14T14:07:45.694Z,260.90
2019-04-14T14:12:03.519Z,256.33
2019-04-14T14:16:30.727Z,248.57
2019-04-14T14:20:46.532Z,250.73
2019-04-14T14:25:01.188Z,254.03
2019-04-14T14:29:12.535Z,268.93
2019-04-14T14:33:22.870Z,257.07
2019-04-14T14:37:33.387Z,262.17
2019-04-14T14:41:43.771Z,256.10
2019-04-14T14:45:58.743Z,258.00
2019-04-14T14:50:26.952Z,266.63
2019-04-14T14:54:37.358Z,259.20
2019-04-14T14:58:47.582Z,262.77
2019-04-14T15:02:57.936Z,258.80
2019-04-14T15:07:08.442Z,265.23
2019-04-14T15:11:18.986Z,264.03
2019-04-14T15:15:29.365Z,258.33
2019-04-14T15:19:44.136Z,259.30
2019-04-14T15:23:55.279Z,266.97
2019-04-14T15:28:05.655Z,265.47
2019-04-14T15:32:15.998Z,262.27
2019-04-14T15:36:26.299Z,266.60
2019-04-14T15:40:36.711Z,265.87
2019-04-14T15:44:47.067Z,260.43
2019-04-14T15:48:57.392Z,259.60
2019-04-14T15:53:08.032Z,264.83
2019-04-14T15:57:38.367Z,257.23
2019-04-14T16:01:55.932Z,263.07
2019-04-14T16:06:17.345Z,270.83
2019-04-14T16:10:31.960Z,270.97
2019-04-14T16:14:43.946Z,262.00
2019-04-14T16:18:58.718Z,266.77
2019-04-14T16:23:09.078Z,260.53
2019-04-14T16:27:21.346Z,262.70
2019-04-14T16:31:49.141Z,268.80
2019-04-14T16:35:59.792Z,266.13
2019-04-14T16:40:10.344Z,269.63
2019-04-14T16:44:20.708Z,266.63
2019-04-14T16:48:31.084Z,260.33
2019-04-14T16:52:45.863Z,264.67
2019-04-14T16:57:17.099Z,261.83
2019-04-14T17:01:29.230Z,255.33
2019-04-14T17:05:39.446Z,266.40
2019-04-14T17:09:49.714Z,269.20
2019-04-14T17:14:07.469Z,268.07
2019-04-14T17:18:22.436Z,261.73
2019-04-14T17:22:43.147Z,258.80
2019-04-14T17:26:57.951Z,267.93
2019-04-14T17:31:09.943Z,270.47
2019-04-14T17:35:39.628Z,268.73
2019-04-14T17:39:54.259Z,268.73
2019-04-14T17:44:06.490Z,267.33
2019-04-14T17:48:34.606Z,270.70
2019-04-14T17:52:52.364Z,262.33
2019-04-14T17:57:16.017Z,260.90
2019-04-14T18:01:31.022Z,265.17
2019-04-14T18:05:42.870Z,270.57
2019-04-14T18:09:54.835Z,277.13
2019-04-14T18:14:10.174Z,266.20
2019-04-14T18:18:22.173Z,269.57
2019-04-14T18:22:33.073Z,273.43
2019-04-14T18:26:43.969Z,260.03
2019-04-14T18:30:56.342Z,261.90
2019-04-14T18:35:08.268Z,264.90
2019-04-14T18:39:20.237Z,260.83
2019-04-14T18:43:35.180Z,261.77
2019-04-14T18:47:49.308Z,254.83
2019-04-14T18:52:05.117Z,265.20
2019-04-14T18:56:34.193Z,258.60
2019-04-14T19:00:47.426Z,254.43
2019-04-14T19:04:58.478Z,259.60
2019-04-14T19:09:08.874Z,256.00
2019-04-14T19:13:27.640Z,252.77
2019-04-14T19:17:56.339Z,251.20
2019-04-14T19:22:06.754Z,254.20
2019-04-14T19:26:17.038Z,251.60
2019-04-14T19:30:27.659Z,262.70
2019-04-14T19:34:37.996Z,260.53
2019-04-14T19:38:48.342Z,257.47
2019-04-14T19:42:58.849Z,250.27
2019-04-14T19:47:09.265Z,251.00
2019-04-14T19:51:19.463Z,259.87
2019-04-14T19:55:29.873Z,256.90
2019-04-14T19:59:40.280Z,256.17
2019-04-14T20:03:50.500Z,257.63
2019-04-14T20:08:02.217Z,253.40
2019-04-14T20:12:13.210Z,252.63
2019-04-14T20:16:31.301Z,248.37
2019-04-14T20:20:43.343Z,248.70
2019-04-14T20:24:55.404Z,248.63
2019-04-14T20:29:09.918Z,253.90
2019-04-14T20:33:20.251Z,256.23
2019-04-14T20:37:30.687Z,254.70
2019-04-14T20:41:41.461Z,254.97
2019-04-14T20:45:51.862Z,251.37
2019-04-14T20:50:02.420Z,246.70
2019-04-14T20:54:13.429Z,243.87
2019-04-14T20:58:23.670Z,252.87
2019-04-14T21:02:35.614Z,246.57
2019-04-14T21:06:47.573Z,256.63
2019-04-14T21:11:15.792Z,253.57
2019-04-14T21:15:30.135Z,243.27
2019-04-14T21:19:50.952Z,255.03
2019-04-14T21:24:10.310Z,247.27
2019-04-14T21:28:37.861Z,261.67
2019-04-14T21:32:50.122Z,252.23
2019-04-14T21:37:02.058Z,248.97
2019-04-14T21:41:24.814Z,246.87
2019-04-14T21:45:35.082Z,252.00
2019-04-14T21:49:47.906Z,249.93
2019-04-14T21:53:58.333Z,251.50
2019-04-14T21:58:10.401Z,255.00
2019-04-14T22:02:39.355Z,257.00
2019-04-14T22:06:54.010Z,251.10
2019-04-14T22:11:09.039Z,258.40
2019-04-14T22:15:19.233Z,249.50
2019-04-14T22:19:30.327Z,245.17
2019-04-14T22:23:40.842Z,250.57
2019-04-14T22:27:51.169Z,260.30
2019-04-14T22:32:18.949Z,256.07
2019-04-14T22:36:29.238Z,248.70
2019-04-14T22:40:39.417Z,256.27
2019-04-14T22:44:49.657Z,252.90
2019-04-14T22:49:01.650Z,252.93
2019-04-14T22:53:11.923Z,255.10
2019-04-14T22:57:22.222Z,251.83
2019-04-14T23:01:34.268Z,257.27
2019-04-14T23:05:51.978Z,246.43
2019-04-14T23:10:04.262Z,253.53
2019-04-14T23:14:16.420Z,248.83
2019-04-14T23:18:28.542Z,246.50
2019-04-14T23:22:49.080Z,244.23
2019-04-14T23:26:59.494Z,257.50
2019-04-14T23:31:09.806Z,250.27
2019-04-14T23:35:20.111Z,263.97
2019-04-14T23:39:30.949Z,248.50
2019-04-14T23:43:41.238Z,249.00
2019-04-14T23:47:51.738Z,253.93
2019-04-14T23:52:02.416Z,250.00
2019-04-14T23:56:12.691Z,245.83
